createdAt,value
2022-10-02T00:02:39.727Z,85.00
2022-10-02T00:05:19.762Z,86.70
2022-10-02T00:07:49.354Z,86.60
2022-10-02T00:10:29.101Z,86.50
2022-10-02T00:12:58.509Z,85.60
2022-10-02T00:15:30.434Z,85.00
2022-10-02T00:18:02.461Z,86.90
2022-10-02T00:20:42.918Z,86.00
2022-10-02T00:23:17.754Z,86.70
2022-10-02T00:25:53.051Z,84.70
2022-10-02T00:28:36.463Z,85.60
2022-10-02T00:31:41.546Z,84.80
2022-10-02T00:34:27.203Z,86.80
2022-10-02T00:37:22.525Z,86.40
2022-10-02T00:40:07.525Z,86.10
2022-10-02T00:42:34.357Z,86.10
2022-10-02T00:45:19.826Z,85.60
2022-10-02T00:48:24.038Z,86.50
2022-10-02T00:50:58.614Z,87.20
2022-10-02T00:53:37.365Z,85.70
2022-10-02T00:56:25.135Z,85.90
2022-10-02T00:58:59.658Z,88.30
2022-10-02T01:01:33.457Z,85.90
2022-10-02T01:04:00.316Z,86.80
2022-10-02T01:06:28.045Z,87.20
2022-10-02T01:08:55.646Z,86.80
2022-10-02T01:11:22.859Z,86.50
2022-10-02T01:13:49.738Z,86.90
2022-10-02T01:16:16.794Z,86.50
2022-10-02T01:18:46.005Z,87.40
2022-10-02T01:21:34.262Z,87.60
2022-10-02T01:24:22.385Z,87.00
2022-10-02T01:26:49.267Z,87.10
2022-10-02T01:29:16.131Z,86.80
2022-10-02T01:31:43.105Z,87.50
2022-10-02T01:34:10.099Z,86.70
2022-10-02T01:36:37.320Z,87.40
2022-10-02T01:39:04.525Z,87.10
2022-10-02T01:41:32.175Z,86.80
2022-10-02T01:44:00.103Z,86.90
2022-10-02T01:46:36.531Z,86.40
2022-10-02T01:49:31.703Z,87.90
2022-10-02T01:52:21.250Z,88.20
2022-10-02T01:54:53.405Z,87.80
2022-10-02T01:57:32.311Z,87.90
2022-10-02T02:00:19.142Z,88.20
2022-10-02T02:02:52.490Z,88.60
2022-10-02T02:05:46.550Z,87.50
2022-10-02T02:08:28.735Z,89.70
2022-10-02T02:11:11.566Z,87.90
2022-10-02T02:13:45.406Z,87.70
2022-10-02T02:16:45.271Z,86.90
2022-10-02T02:19:12.168Z,88.40
2022-10-02T02:21:45.931Z,87.50
2022-10-02T02:24:16.146Z,87.50
2022-10-02T02:26:43.838Z,87.30
2022-10-02T02:29:10.756Z,87.20
2022-10-02T02:31:49.164Z,86.20
2022-10-02T02:34:19.434Z,87.80
2022-10-02T02:36:48.601Z,87.20
2022-10-02T02:39:17.445Z,86.90
2022-10-02T02:41:49.758Z,87.40
2022-10-02T02:44:28.979Z,87.80
2022-10-02T02:47:05.042Z,88.20
2022-10-02T02:49:46.989Z,87.30
2022-10-02T02:52:21.821Z,87.40
2022-10-02T02:55:24.450Z,87.50
2022-10-02T02:58:19.289Z,88.30
2022-10-02T03:00:46.429Z,87.60
2022-10-02T03:03:13.722Z,85.90
2022-10-02T03:05:44.601Z,85.60
2022-10-02T03:08:22.479Z,87.00
2022-10-02T03:11:07.583Z,87.10
2022-10-02T03:14:19.383Z,88.00
2022-10-02T03:16:55.879Z,88.40
2022-10-02T03:19:43.842Z,87.50
2022-10-02T03:22:46.102Z,88.70
2022-10-02T03:25:18.709Z,87.70
2022-10-02T03:27:57.349Z,88.20
2022-10-02T03:30:24.779Z,88.00
2022-10-02T03:32:53.596Z,88.80
2022-10-02T03:35:21.222Z,88.20
2022-10-02T03:37:53.135Z,86.70
2022-10-02T03:40:24.440Z,87.90
2022-10-02T03:42:52.015Z,88.00
2022-10-02T03:45:39.051Z,87.70
2022-10-02T03:48:06.534Z,87.90
2022-10-02T03:50:36.406Z,87.80
2022-10-02T03:53:03.550Z,87.90
2022-10-02T03:55:35.586Z,87.90
2022-10-02T03:58:05.282Z,88.20
2022-10-02T04:00:40.413Z,87.70
2022-10-02T04:03:14.776Z,88.20
2022-10-02T04:05:45.335Z,88.60
2022-10-02T04:08:12.175Z,88.50
2022-10-02T04:10:47.767Z,88.30
2022-10-02T04:13:18.055Z,87.80
2022-10-02T04:16:05.365Z,88.00
2022-10-02T04:18:46.180Z,88.80
2022-10-02T04:21:17.745Z,88.10
2022-10-02T04:23:49.177Z,88.90
2022-10-02T04:26:23.639Z,89.10
2022-10-02T04:29:00.092Z,87.70
2022-10-02T04:31:28.611Z,89.00
2022-10-02T04:33:59.397Z,88.50
2022-10-02T04:36:45.692Z,88.50
2022-10-02T04:39:31.197Z,90.00
2022-10-02T04:42:15.136Z,89.10
2022-10-02T04:44:47.749Z,89.20
2022-10-02T04:47:48.610Z,88.50
2022-10-02T04:50:46.714Z,89.50
2022-10-02T04:53:36.966Z,89.60
2022-10-02T04:56:29.099Z,88.80
2022-10-02T04:59:17.251Z,89.50
2022-10-02T05:01:59.081Z,89.50
2022-10-02T05:04:43.643Z,89.50
2022-10-02T05:07:22.514Z,89.50
2022-10-02T05:10:18.691Z,89.50
2022-10-02T05:12:48.618Z,89.50
2022-10-02T05:15:40.503Z,89.50
2022-10-02T05:18:17.987Z,89.50
2022-10-02T05:20:53.891Z,88.90
2022-10-02T05:23:55.310Z,89.50
2022-10-02T05:26:34.077Z,89.50
2022-10-02T05:29:32.402Z,89.50
2022-10-02T05:32:40.472Z,90.00
2022-10-02T05:35:25.225Z,89.50
2022-10-02T05:38:02.551Z,89.20
2022-10-02T05:40:36.586Z,88.80
2022-10-02T05:43:10.127Z,89.50
2022-10-02T05:45:39.222Z,90.00
2022-10-02T05:48:23.214Z,89.50
2022-10-02T05:51:12.002Z,89.50
2022-10-02T05:53:48.947Z,90.00
2022-10-02T05:56:31.363Z,89.50
2022-10-02T05:59:03.371Z,89.50
2022-10-02T06:01:32.620Z,89.50
2022-10-02T06:04:14.338Z,89.40
2022-10-02T06:06:55.569Z,89.40
2022-10-02T06:09:31.469Z,90.00
2022-10-02T06:12:30.684Z,90.10
2022-10-02T06:15:05.748Z,90.30
2022-10-02T06:17:40.989Z,90.30
2022-10-02T06:20:24.589Z,90.40
2022-10-02T06:23:11.809Z,90.50
2022-10-02T06:25:44.942Z,90.40
2022-10-02T06:28:16.044Z,90.40
2022-10-02T06:30:46.194Z,90.50
2022-10-02T06:33:18.331Z,90.40
2022-10-02T06:36:13.779Z,90.00
2022-10-02T06:39:15.980Z,90.50
2022-10-02T06:42:04.514Z,90.30
2022-10-02T06:44:50.126Z,90.50
2022-10-02T06:47:35.013Z,90.40
2022-10-02T06:50:28.376Z,90.30
2022-10-02T06:53:07.127Z,90.50
2022-10-02T06:55:45.572Z,90.40
2022-10-02T06:58:33.046Z,90.30
2022-10-02T07:01:38.306Z,90.30
2022-10-02T07:04:23.074Z,90.50
2022-10-02T07:07:27.522Z,90.30
2022-10-02T07:10:22.883Z,90.80
2022-10-02T07:13:20.252Z,90.70
2022-10-02T07:15:49.865Z,90.70
2022-10-02T07:18:43.190Z,90.50
2022-10-02T07:21:33.015Z,90.70
2022-10-02T07:24:12.110Z,90.60
2022-10-02T07:26:52.610Z,90.90
2022-10-02T07:29:34.352Z,90.60
2022-10-02T07:32:19.948Z,90.70
2022-10-02T07:34:52.106Z,90.60
2022-10-02T07:37:39.569Z,90.30
2022-10-02T07:40:10.387Z,90.50
2022-10-02T07:42:44.104Z,90.30
2022-10-02T07:45:18.841Z,90.30
2022-10-02T07:47:51.071Z,90.50
2022-10-02T07:50:31.796Z,90.40
2022-10-02T07:53:24.278Z,90.60
2022-10-02T07:55:54.163Z,90.40
2022-10-02T07:58:50.994Z,90.50
2022-10-02T08:01:31.634Z,90.70
2022-10-02T08:04:19.302Z,90.70
2022-10-02T08:06:47.330Z,90.40
2022-10-02T08:09:44.119Z,90.30
2022-10-02T08:12:29.446Z,90.30
2022-10-02T08:14:56.334Z,90.30
2022-10-02T08:17:23.992Z,89.90
2022-10-02T08:19:51.521Z,90.20
2022-10-02T08:22:18.458Z,90.10
2022-10-02T08:24:51.777Z,90.00
2022-10-02T08:27:41.455Z,90.30
2022-10-02T08:30:08.732Z,90.30
2022-10-02T08:32:36.795Z,90.20
2022-10-02T08:35:22.075Z,90.20
2022-10-02T08:38:10.331Z,90.20
2022-10-02T08:40:55.935Z,90.10
2022-10-02T08:43:55.494Z,90.30
2022-10-02T08:46:58.305Z,90.10
2022-10-02T08:49:31.455Z,90.00
2022-10-02T08:52:29.210Z,90.00
2022-10-02T08:55:02.203Z,90.00
2022-10-02T08:57:58.218Z,90.00
2022-10-02T09:00:48.526Z,90.00
2022-10-02T09:03:45.964Z,89.30
2022-10-02T09:06:38.825Z,89.40
2022-10-02T09:09:20.652Z,88.00
2022-10-02T09:12:10.343Z,88.70
2022-10-02T09:14:49.443Z,87.90
2022-10-02T09:17:32.411Z,88.40
2022-10-02T09:20:02.213Z,87.80
2022-10-02T09:22:31.811Z,87.70
2022-10-02T09:25:13.415Z,86.40
2022-10-02T09:27:40.270Z,86.90
2022-10-02T09:30:12.933Z,86.80
2022-10-02T09:33:03.667Z,86.40
2022-10-02T09:35:36.450Z,85.90
2022-10-02T09:38:14.337Z,85.70
2022-10-02T09:40:59.331Z,84.20
2022-10-02T09:44:20.527Z,84.70
2022-10-02T09:47:04.003Z,83.70
2022-10-02T09:49:42.524Z,82.70
2022-10-02T09:52:22.260Z,83.20
2022-10-02T09:55:01.807Z,83.40
2022-10-02T09:57:47.073Z,82.40
2022-10-02T10:00:27.307Z,81.90
2022-10-02T10:03:31.191Z,82.70
2022-10-02T10:06:06.913Z,80.20
2022-10-02T10:09:07.143Z,82.30
2022-10-02T10:12:01.151Z,80.10
2022-10-02T10:14:45.346Z,77.80
2022-10-02T10:17:44.119Z,77.60
2022-10-02T10:20:26.422Z,75.10
2022-10-02T10:23:20.660Z,74.20
2022-10-02T10:25:50.494Z,76.70
2022-10-02T10:28:35.324Z,77.60
2022-10-02T10:31:22.340Z,76.80
2022-10-02T10:34:21.986Z,69.40
2022-10-02T10:37:19.477Z,72.70
2022-10-02T10:40:01.324Z,74.50
2022-10-02T10:42:49.942Z,74.40
2022-10-02T10:45:27.350Z,69.20
2022-10-02T10:48:14.927Z,71.00
2022-10-02T10:51:14.376Z,68.10
2022-10-02T10:54:06.252Z,71.30
2022-10-02T10:57:05.359Z,67.90
2022-10-02T10:59:46.467Z,70.70
2022-10-02T11:02:48.536Z,71.60
2022-10-02T11:05:51.558Z,63.60
2022-10-02T11:08:23.859Z,60.70
2022-10-02T11:11:24.227Z,68.30
2022-10-02T11:14:21.503Z,61.10
2022-10-02T11:17:06.411Z,60.40
2022-10-02T11:19:40.470Z,57.70
2022-10-02T11:22:19.929Z,66.20
2022-10-02T11:25:20.978Z,63.80
2022-10-02T11:28:09.213Z,60.90
2022-10-02T11:30:55.040Z,58.80
2022-10-02T11:33:42.798Z,60.50
2022-10-02T11:36:35.427Z,59.60
2022-10-02T11:39:07.467Z,58.10
2022-10-02T11:41:59.388Z,57.90
2022-10-02T11:44:54.666Z,62.00
2022-10-02T11:47:40.555Z,57.30
2022-10-02T11:50:38.415Z,62.10
2022-10-02T11:53:32.199Z,57.80
2022-10-02T11:56:34.217Z,60.10
2022-10-02T11:59:38.188Z,53.20
2022-10-02T12:02:20.968Z,56.60
2022-10-02T12:05:15.685Z,54.00
2022-10-02T12:07:58.377Z,48.10
2022-10-02T12:10:54.690Z,54.00
2022-10-02T12:13:42.134Z,45.70
2022-10-02T12:16:27.543Z,49.30
2022-10-02T12:19:19.429Z,52.30
2022-10-02T12:22:31.511Z,46.30
2022-10-02T12:25:43.172Z,47.90
2022-10-02T12:28:21.382Z,52.40
2022-10-02T12:30:51.403Z,48.00
2022-10-02T12:33:29.825Z,44.60
2022-10-02T12:36:05.476Z,46.30
2022-10-02T12:39:12.328Z,52.60
2022-10-02T12:41:45.084Z,45.60
2022-10-02T12:44:36.571Z,54.20
2022-10-02T12:47:23.355Z,45.70
2022-10-02T12:50:17.346Z,41.30
2022-10-02T12:53:16.002Z,42.50
2022-10-02T12:56:13.877Z,40.20
2022-10-02T12:58:59.270Z,39.70
2022-10-02T13:01:48.140Z,48.70
2022-10-02T13:04:40.745Z,47.00
2022-10-02T13:07:33.642Z,40.80
2022-10-02T13:10:25.336Z,39.30
2022-10-02T13:12:55.671Z,40.00
2022-10-02T13:15:25.007Z,48.10
2022-10-02T13:18:27.739Z,45.60
2022-10-02T13:21:18.995Z,41.30
2022-10-02T13:24:10.034Z,39.30
2022-10-02T13:26:46.109Z,35.10
2022-10-02T13:29:25.261Z,45.90
2022-10-02T13:32:02.456Z,35.30
2022-10-02T13:34:48.017Z,41.70
2022-10-02T13:37:27.163Z,44.90
2022-10-02T13:40:17.746Z,39.60
2022-10-02T13:43:04.340Z,35.60
2022-10-02T13:45:51.517Z,40.40
2022-10-02T13:48:23.202Z,39.20
2022-10-02T13:50:58.889Z,45.50
2022-10-02T13:53:39.487Z,41.20
2022-10-02T13:56:29.207Z,40.70
2022-10-02T13:59:23.719Z,36.50
2022-10-02T14:02:09.521Z,36.80
2022-10-02T14:05:01.141Z,35.80
2022-10-02T14:07:43.057Z,36.80
2022-10-02T14:10:22.847Z,36.50
2022-10-02T14:13:19.790Z,37.10
2022-10-02T14:15:52.504Z,35.40
2022-10-02T14:18:22.234Z,37.10
2022-10-02T14:21:17.027Z,42.50
2022-10-02T14:23:46.664Z,39.60
2022-10-02T14:26:16.208Z,42.80
2022-10-02T14:28:44.923Z,38.50
2022-10-02T14:31:26.726Z,44.00
2022-10-02T14:33:57.934Z,40.20
2022-10-02T14:36:35.263Z,43.70
2022-10-02T14:39:33.074Z,38.40
2022-10-02T14:42:27.988Z,37.90
2022-10-02T14:45:18.662Z,38.20
2022-10-02T14:48:20.906Z,38.00
2022-10-02T14:51:10.222Z,39.00
2022-10-02T14:53:45.305Z,41.80
2022-10-02T14:56:44.198Z,38.50
2022-10-02T14:59:11.060Z,37.00
2022-10-02T15:02:04.730Z,42.30
2022-10-02T15:04:38.612Z,39.00
2022-10-02T15:07:12.665Z,39.00
2022-10-02T15:10:00.292Z,39.60
2022-10-02T15:12:52.979Z,36.00
2022-10-02T15:15:32.549Z,33.10
2022-10-02T15:18:20.167Z,34.50
2022-10-02T15:21:09.675Z,36.60
2022-10-02T15:23:42.535Z,33.50
2022-10-02T15:26:40.247Z,34.50
2022-10-02T15:29:44.819Z,33.10
2022-10-02T15:32:31.358Z,34.50
2022-10-02T15:35:23.577Z,35.80
2022-10-02T15:38:00.924Z,34.50
2022-10-02T15:41:18.734Z,32.80
2022-10-02T15:44:19.422Z,33.20
2022-10-02T15:47:11.158Z,34.80
2022-10-02T15:49:41.464Z,35.30
2022-10-02T15:52:25.712Z,38.40
2022-10-02T15:54:54.858Z,37.20
2022-10-02T15:57:26.018Z,34.30
2022-10-02T16:00:02.330Z,37.10
2022-10-02T16:02:53.457Z,32.80
2022-10-02T16:05:29.461Z,35.90
2022-10-02T16:08:17.419Z,35.30
2022-10-02T16:11:21.707Z,36.70
2022-10-02T16:13:59.307Z,33.80
2022-10-02T16:16:40.346Z,37.20
2022-10-02T16:19:30.414Z,38.50
2022-10-02T16:22:06.718Z,36.40
2022-10-02T16:24:48.163Z,36.50
2022-10-02T16:27:25.414Z,33.50
2022-10-02T16:30:02.251Z,36.20
2022-10-02T16:32:57.869Z,38.60
2022-10-02T16:35:55.876Z,38.00
2022-10-02T16:38:24.986Z,34.80
2022-10-02T16:41:04.365Z,38.50
2022-10-02T16:44:08.226Z,38.30
2022-10-02T16:46:39.867Z,36.70
2022-10-02T16:49:40.710Z,39.50
2022-10-02T16:52:14.430Z,36.00
2022-10-02T16:54:47.410Z,38.30
2022-10-02T16:57:29.639Z,39.00
2022-10-02T17:00:15.565Z,39.60
2022-10-02T17:03:29.162Z,41.30
2022-10-02T17:06:32.666Z,41.70
2022-10-02T17:09:06.566Z,42.40
2022-10-02T17:11:45.385Z,43.30
2022-10-02T17:14:42.937Z,43.20
2022-10-02T17:17:31.415Z,45.00
2022-10-02T17:20:01.224Z,46.20
2022-10-02T17:22:52.766Z,46.40
2022-10-02T17:25:57.095Z,47.90
2022-10-02T17:28:46.240Z,49.80
2022-10-02T17:31:28.784Z,49.70
2022-10-02T17:34:00.894Z,51.50
2022-10-02T17:36:35.364Z,52.10
2022-10-02T17:39:03.455Z,52.90
2022-10-02T17:42:05.190Z,52.50
2022-10-02T17:44:50.897Z,55.20
2022-10-02T17:47:37.738Z,57.20
2022-10-02T17:50:32.244Z,57.60
2022-10-02T17:53:24.199Z,58.20
2022-10-02T17:56:30.073Z,55.70
2022-10-02T17:59:07.167Z,60.30
2022-10-02T18:02:06.322Z,58.60
2022-10-02T18:04:49.154Z,61.90
2022-10-02T18:07:30.400Z,60.60
2022-10-02T18:10:13.997Z,60.80
2022-10-02T18:12:56.442Z,60.90
2022-10-02T18:15:41.467Z,62.30
2022-10-02T18:18:24.083Z,62.70
2022-10-02T18:20:57.482Z,62.40
2022-10-02T18:23:58.014Z,61.50
2022-10-02T18:26:40.295Z,65.00
2022-10-02T18:29:28.414Z,64.40
2022-10-02T18:32:31.623Z,64.40
2022-10-02T18:35:27.019Z,65.30
2022-10-02T18:38:18.102Z,64.90
2022-10-02T18:40:54.895Z,64.70
2022-10-02T18:43:52.313Z,64.70
2022-10-02T18:46:22.121Z,66.10
2022-10-02T18:49:24.092Z,64.60
2022-10-02T18:52:00.103Z,67.50
2022-10-02T18:54:42.005Z,67.30
2022-10-02T18:57:08.871Z,67.20
2022-10-02T19:00:15.752Z,66.10
2022-10-02T19:02:51.422Z,69.50
2022-10-02T19:05:39.119Z,66.20
2022-10-02T19:08:26.351Z,66.60
2022-10-02T19:10:53.262Z,66.60
2022-10-02T19:13:29.976Z,67.10
2022-10-02T19:16:01.204Z,69.40
2022-10-02T19:18:29.089Z,67.20
2022-10-02T19:21:09.075Z,68.00
2022-10-02T19:23:37.969Z,69.60
2022-10-02T19:26:06.405Z,73.50
2022-10-02T19:28:33.718Z,73.50
2022-10-02T19:31:05.074Z,73.60
2022-10-02T19:33:34.718Z,73.50
2022-10-02T19:36:03.329Z,73.50
2022-10-02T19:38:37.038Z,73.50
2022-10-02T19:41:13.489Z,73.50
2022-10-02T19:43:48.284Z,73.50
2022-10-02T19:46:15.187Z,73.40
2022-10-02T19:48:42.046Z,73.70
2022-10-02T19:51:17.074Z,73.50
2022-10-02T19:53:47.352Z,73.70
2022-10-02T19:56:15.397Z,74.40
2022-10-02T19:58:44.169Z,74.60
2022-10-02T20:01:24.578Z,75.00
2022-10-02T20:03:58.485Z,75.00
2022-10-02T20:06:26.424Z,75.40
2022-10-02T20:09:08.386Z,76.10
2022-10-02T20:11:45.369Z,75.90
2022-10-02T20:14:20.706Z,76.10
2022-10-02T20:17:06.353Z,76.10
2022-10-02T20:19:34.475Z,76.60
2022-10-02T20:22:07.354Z,76.90
2022-10-02T20:24:39.472Z,76.90
2022-10-02T20:27:17.528Z,76.90
2022-10-02T20:29:46.907Z,77.00
2022-10-02T20:32:15.343Z,77.10
2022-10-02T20:34:43.347Z,77.20
2022-10-02T20:37:15.334Z,77.20
2022-10-02T20:39:44.671Z,77.20
2022-10-02T20:42:40.589Z,77.50
2022-10-02T20:45:09.293Z,77.70
2022-10-02T20:47:39.216Z,77.70
2022-10-02T20:50:08.743Z,77.90
2022-10-02T20:53:01.705Z,78.60
2022-10-02T20:55:47.476Z,78.60
2022-10-02T20:58:25.361Z,78.30
2022-10-02T21:00:55.595Z,78.30
2022-10-02T21:03:23.601Z,78.50
2022-10-02T21:05:53.532Z,78.40
2022-10-02T21:08:23.401Z,78.60
2022-10-02T21:11:09.771Z,79.30
2022-10-02T21:13:42.771Z,78.40
2022-10-02T21:16:10.901Z,78.50
2022-10-02T21:19:00.732Z,78.70
2022-10-02T21:21:43.350Z,78.70
2022-10-02T21:24:16.025Z,78.80
2022-10-02T21:26:55.904Z,80.20
2022-10-02T21:29:26.132Z,80.60
2022-10-02T21:32:11.817Z,80.20
2022-10-02T21:34:42.438Z,80.40
2022-10-02T21:37:12.990Z,80.60
2022-10-02T21:39:59.601Z,80.70
2022-10-02T21:42:45.255Z,80.70
2022-10-02T21:45:28.813Z,80.70
2022-10-02T21:48:10.713Z,80.20
2022-10-02T21:50:37.585Z,80.60
2022-10-02T21:53:23.048Z,80.40
2022-10-02T21:56:00.104Z,80.70
2022-10-02T21:58:45.272Z,80.60
2022-10-02T22:01:30.676Z,80.60
2022-10-02T22:04:18.897Z,80.60
2022-10-02T22:06:57.911Z,80.60
2022-10-02T22:09:30.341Z,80.60
2022-10-02T22:12:00.990Z,81.00
2022-10-02T22:14:35.087Z,81.60
2022-10-02T22:17:12.182Z,81.20
2022-10-02T22:19:38.953Z,81.40
2022-10-02T22:22:14.227Z,81.40
2022-10-02T22:24:59.922Z,81.20
2022-10-02T22:27:26.730Z,81.40
2022-10-02T22:29:56.749Z,82.00
2022-10-02T22:33:01.066Z,81.80
2022-10-02T22:35:45.704Z,81.60
2022-10-02T22:38:25.766Z,81.40
2022-10-02T22:40:53.062Z,81.70
2022-10-02T22:43:21.611Z,81.70
2022-10-02T22:45:49.937Z,81.70
2022-10-02T22:48:37.349Z,82.00
2022-10-02T22:51:11.925Z,81.60
2022-10-02T22:53:40.862Z,81.70
2022-10-02T22:56:16.466Z,82.20
2022-10-02T22:58:48.057Z,81.70
2022-10-02T23:01:17.950Z,82.00
2022-10-02T23:03:48.522Z,81.70
2022-10-02T23:06:30.732Z,81.90
2022-10-02T23:09:04.527Z,81.60
2022-10-02T23:11:37.470Z,81.20
2022-10-02T23:14:06.259Z,81.40
2022-10-02T23:16:39.491Z,81.20
2022-10-02T23:19:12.551Z,81.10
2022-10-02T23:21:45.908Z,81.50
2022-10-02T23:24:13.093Z,81.80
2022-10-02T23:26:46.010Z,81.60
2022-10-02T23:29:21.966Z,81.40
2022-10-02T23:31:57.359Z,81.70
2022-10-02T23:34:36.000Z,81.70
2022-10-02T23:37:29.330Z,81.60
2022-10-02T23:40:05.444Z,81.40
2022-10-02T23:42:34.674Z,81.60
2022-10-02T23:45:08.486Z,82.00
2022-10-02T23:47:54.892Z,82.00
2022-10-02T23:50:34.110Z,81.80
2022-10-02T23:53:19.470Z,81.90
2022-10-02T23:55:46.219Z,82.20
2022-10-02T23:58:13.600Z,82.30
